Time;durP1;ratioP1;P1;durP2;ratioP2;P2;SDS_P1;SDS_P2;PMS_P1;PMS_P2;Temp;Humidity;BMP_temperature;BMP_pressure;BME280_temperature;BME280_humidity;BME280_pressure;Samples;Min_cycle;Max_cycle;Signal;HPM_P1;HPM_P2
2021/11/29 00:02:06;;;;;;;8.13;5.93;;;;;;;;;;4996367;28;20231;-76
2021/11/29 00:04:34;;;;;;;6.20;5.60;;;;;;;;;;5014483;28;20756;-76
2021/11/29 00:07:03;;;;;;;8.40;6.07;;;;;;;;;;5028390;28;20273;-76
2021/11/29 00:09:28;;;;;;;7.90;6.03;;;;;;;;;;4992035;28;20219;-76
2021/11/29 00:11:56;;;;;;;7.60;5.80;;;;;;;;;;5012568;28;20231;-76
2021/11/29 00:14:22;;;;;;;8.73;6.60;;;;;;;;;;5011627;28;20224;-76
2021/11/29 00:16:52;;;;;;;5.70;4.90;;;;;;;;;;4993381;28;20234;-74
2021/11/29 00:19:17;;;;;;;8.27;5.50;;;;;;;;;;4992973;28;20220;-76
2021/11/29 00:21:45;;;;;;;6.23;4.70;;;;;;;;;;5007315;28;20224;-76
2021/11/29 00:24:14;;;;;;;5.00;4.50;;;;;;;;;;5011369;28;20220;-76
2021/11/29 00:26:39;;;;;;;6.07;4.90;;;;;;;;;;5018557;28;20267;-76
2021/11/29 00:29:07;;;;;;;7.67;5.27;;;;;;;;;;5001917;28;20215;-76
2021/11/29 00:31:35;;;;;;;4.93;4.40;;;;;;;;;;4995936;28;20240;-77
2021/11/29 00:34:01;;;;;;;6.53;4.70;;;;;;;;;;5033227;28;20235;-76
2021/11/29 00:36:27;;;;;;;5.63;4.87;;;;;;;;;;5012737;28;20224;-76
2021/11/29 00:38:52;;;;;;;7.50;5.13;;;;;;;;;;4997020;28;20232;-76
2021/11/29 00:41:18;;;;;;;5.57;4.57;;;;;;;;;;5015453;28;20354;-77
2021/11/29 00:43:48;;;;;;;8.77;5.63;;;;;;;;;;5000112;28;20227;-76
2021/11/29 00:46:19;;;;;;;8.17;5.80;;;;;;;;;;5031678;28;20278;-76
2021/11/29 00:48:47;;;;;;;5.73;5.20;;;;;;;;;;4999722;28;20231;-76
2021/11/29 00:51:15;;;;;;;7.30;5.17;;;;;;;;;;5032144;28;20216;-75
2021/11/29 00:53:43;;;;;;;7.37;5.60;;;;;;;;;;5015784;28;20282;-76
2021/11/29 00:56:11;;;;;;;5.40;4.90;;;;;;;;;;4995757;28;20639;-76
2021/11/29 00:58:37;;;;;;;6.27;5.67;;;;;;;;;;5016004;28;20228;-76
2021/11/29 01:01:04;;;;;;;5.87;5.10;;;;;;;;;;5031340;28;20295;-76
2021/11/29 01:03:30;;;;;;;7.33;5.97;;;;;;;;;;5019740;28;20728;-76
2021/11/29 01:05:56;;;;;;;7.57;6.30;;;;;;;;;;4999085;28;20294;-75
2021/11/29 01:08:22;;;;;;;9.07;6.73;;;;;;;;;;4998971;28;20693;-76
2021/11/29 01:10:47;;;;;;;7.90;6.70;;;;;;;;;;4998516;28;20219;-76
2021/11/29 01:13:13;;;;;;;9.80;6.97;;;;;;;;;;5031848;28;20219;-76
2021/11/29 01:15:39;;;;;;;6.87;6.13;;;;;;;;;;5015185;28;20219;-76
2021/11/29 01:18:11;;;;;;;10.37;7.00;;;;;;;;;;4995960;28;20221;-76
2021/11/29 01:20:43;;;;;;;8.47;6.73;;;;;;;;;;4996225;28;20311;-76
2021/11/29 01:23:09;;;;;;;8.23;6.53;;;;;;;;;;5015959;28;20240;-76
2021/11/29 01:25:37;;;;;;;8.00;7.00;;;;;;;;;;5015050;28;20224;-76
2021/11/29 01:28:06;;;;;;;10.30;6.50;;;;;;;;;;5038348;28;20228;-75
2021/11/29 01:30:36;;;;;;;8.77;6.93;;;;;;;;;;4980419;28;20220;-75
2021/11/29 01:33:02;;;;;;;6.90;6.20;;;;;;;;;;4996040;28;20224;-77
2021/11/29 01:35:28;;;;;;;8.57;6.80;;;;;;;;;;4986743;28;20290;-74
2021/11/29 01:37:58;;;;;;;8.77;6.87;;;;;;;;;;4989546;28;20247;-75
2021/11/29 01:40:24;;;;;;;9.20;6.43;;;;;;;;;;4992171;28;20229;-75
2021/11/29 01:43:06;;;;;;;7.30;6.30;;;;;;;;;;4996179;28;20221;-75
2021/11/29 01:45:35;;;;;;;6.90;6.10;;;;;;;;;;4995737;28;20307;-76
2021/11/29 01:48:06;;;;;;;6.57;5.80;;;;;;;;;;5014569;28;20311;-74
2021/11/29 01:50:34;;;;;;;6.00;5.40;;;;;;;;;;5015166;28;20230;-76
2021/11/29 01:53:04;;;;;;;6.57;5.83;;;;;;;;;;5030933;28;20615;-76
2021/11/29 01:55:32;;;;;;;6.47;5.87;;;;;;;;;;5014180;28;20220;-74
2021/11/29 01:58:02;;;;;;;6.47;5.80;;;;;;;;;;5037872;28;20247;-74
2021/11/29 02:00:32;;;;;;;7.50;6.43;;;;;;;;;;4994750;28;20224;-76
2021/11/29 02:03:02;;;;;;;9.20;6.57;;;;;;;;;;4976525;28;20224;-77
2021/11/29 02:05:28;;;;;;;6.83;6.10;;;;;;;;;;5029095;28;20226;-77
2021/11/29 02:07:54;;;;;;;7.57;6.40;;;;;;;;;;4998943;28;20224;-76
2021/11/29 02:10:21;;;;;;;8.10;7.03;;;;;;;;;;5030171;28;20247;-76
2021/11/29 02:12:51;;;;;;;7.50;6.27;;;;;;;;;;4994631;28;20224;-76
2021/11/29 02:15:20;;;;;;;7.03;6.33;;;;;;;;;;4977589;28;20233;-76
2021/11/29 02:17:48;;;;;;;6.67;6.07;;;;;;;;;;4983708;28;20224;-76
2021/11/29 02:20:15;;;;;;;6.53;5.83;;;;;;;;;;4977638;28;20229;-76
2021/11/29 02:22:44;;;;;;;7.00;6.30;;;;;;;;;;5001332;28;20299;-77
2021/11/29 02:25:19;;;;;;;8.20;7.03;;;;;;;;;;5029810;28;20228;-76
2021/11/29 02:27:45;;;;;;;7.77;6.53;;;;;;;;;;4998581;28;20241;-76
2021/11/29 02:30:14;;;;;;;10.30;7.30;;;;;;;;;;5030184;28;20254;-76
2021/11/29 02:32:39;;;;;;;9.17;6.73;;;;;;;;;;5002231;28;20219;-76
2021/11/29 02:35:08;;;;;;;8.87;7.23;;;;;;;;;;5009565;28;20263;-76
2021/11/29 02:37:35;;;;;;;10.13;7.40;;;;;;;;;;4997301;28;20293;-77
2021/11/29 02:40:07;;;;;;;8.40;7.50;;;;;;;;;;5014345;28;20249;-77
2021/11/29 02:42:35;;;;;;;10.37;8.00;;;;;;;;;;4998678;28;20211;-75
2021/11/29 02:45:06;;;;;;;11.07;8.80;;;;;;;;;;5013539;28;20693;-76
2021/11/29 02:47:33;;;;;;;13.53;9.07;;;;;;;;;;5029942;28;20230;-76
2021/11/29 02:49:59;;;;;;;10.73;8.50;;;;;;;;;;5013795;28;20283;-76
2021/11/29 02:52:27;;;;;;;12.07;9.30;;;;;;;;;;4997236;28;20242;-74
2021/11/29 02:54:55;;;;;;;11.80;8.03;;;;;;;;;;5012418;28;20747;-76
2021/11/29 02:57:22;;;;;;;11.03;9.00;;;;;;;;;;5018009;28;20234;-76
2021/11/29 02:59:50;;;;;;;10.43;8.47;;;;;;;;;;5014416;28;20238;-75
2021/11/29 03:02:19;;;;;;;11.63;8.53;;;;;;;;;;5029494;28;20709;-76
2021/11/29 03:04:47;;;;;;;12.17;8.90;;;;;;;;;;4996221;28;20211;-76
2021/11/29 03:07:15;;;;;;;10.73;8.87;;;;;;;;;;5013338;28;20239;-76
2021/11/29 03:09:43;;;;;;;10.83;8.90;;;;;;;;;;5012983;28;20224;-76
2021/11/29 03:12:09;;;;;;;11.07;8.60;;;;;;;;;;4997083;28;20224;-76
2021/11/29 03:14:35;;;;;;;12.23;9.20;;;;;;;;;;5012713;28;20636;-76
2021/11/29 03:17:06;;;;;;;11.13;8.57;;;;;;;;;;5013295;28;20228;-76
2021/11/29 03:19:41;;;;;;;11.53;8.30;;;;;;;;;;4997240;28;20254;-76
2021/11/29 03:22:10;;;;;;;10.40;7.90;;;;;;;;;;5012639;28;20239;-77
2021/11/29 03:24:43;;;;;;;10.03;8.77;;;;;;;;;;4996434;28;20422;-76
2021/11/29 03:27:11;;;;;;;10.13;8.73;;;;;;;;;;5032887;28;20708;-76
2021/11/29 03:29:37;;;;;;;13.17;9.43;;;;;;;;;;5022060;28;20224;-76
2021/11/29 03:32:04;;;;;;;11.63;9.13;;;;;;;;;;5029042;28;20222;-76
2021/11/29 03:34:32;;;;;;;11.00;8.60;;;;;;;;;;5009142;28;20216;-76
2021/11/29 03:36:58;;;;;;;12.53;8.80;;;;;;;;;;5009759;28;20252;-76
2021/11/29 03:39:27;;;;;;;10.33;8.50;;;;;;;;;;5004091;28;20596;-76
2021/11/29 03:41:58;;;;;;;12.63;8.90;;;;;;;;;;4997554;28;20250;-76
2021/11/29 03:44:24;;;;;;;12.40;9.37;;;;;;;;;;5008896;28;20228;-76
2021/11/29 03:46:50;;;;;;;13.30;10.30;;;;;;;;;;4977064;28;20244;-76
2021/11/29 03:49:16;;;;;;;15.57;10.70;;;;;;;;;;5011883;28;20281;-76
2021/11/29 03:51:42;;;;;;;14.20;10.20;;;;;;;;;;4996386;28;20220;-76
2021/11/29 03:54:10;;;;;;;14.60;10.13;;;;;;;;;;4995887;28;20228;-76
2021/11/29 03:56:38;;;;;;;13.20;10.40;;;;;;;;;;4976259;28;20732;-76
2021/11/29 03:59:06;;;;;;;14.47;10.83;;;;;;;;;;5018989;28;20224;-75
2021/11/29 04:01:37;;;;;;;16.43;10.80;;;;;;;;;;5027323;28;20317;-75
2021/11/29 04:04:03;;;;;;;15.57;10.20;;;;;;;;;;5027361;28;20231;-75
2021/11/29 04:06:31;;;;;;;14.07;10.83;;;;;;;;;;5028278;28;20252;-75
2021/11/29 04:08:57;;;;;;;13.17;10.33;;;;;;;;;;5012043;28;20240;-75
2021/11/29 04:11:23;;;;;;;14.23;10.73;;;;;;;;;;4979502;28;20303;-75
2021/11/29 04:13:48;;;;;;;14.10;10.60;;;;;;;;;;4996001;28;20294;-75
2021/11/29 04:16:15;;;;;;;13.87;10.53;;;;;;;;;;5011449;28;20278;-74
2021/11/29 04:18:42;;;;;;;14.33;10.33;;;;;;;;;;4996523;28;20231;-76
2021/11/29 04:21:14;;;;;;;15.13;10.53;;;;;;;;;;4996153;28;20276;-74
2021/11/29 04:23:45;;;;;;;14.43;11.77;;;;;;;;;;5012042;28;20224;-75
2021/11/29 04:26:14;;;;;;;15.53;11.50;;;;;;;;;;4992149;28;20221;-76
2021/11/29 04:28:42;;;;;;;17.27;12.10;;;;;;;;;;4997220;28;20270;-76
2021/11/29 04:31:07;;;;;;;15.90;11.13;;;;;;;;;;4979745;28;20220;-75
2021/11/29 04:33:33;;;;;;;15.57;11.60;;;;;;;;;;5014291;28;20216;-76
2021/11/29 04:36:06;;;;;;;16.30;11.83;;;;;;;;;;4981513;28;20601;-75
2021/11/29 04:38:32;;;;;;;17.20;10.90;;;;;;;;;;5009988;28;20225;-76
2021/11/29 04:41:00;;;;;;;16.27;10.70;;;;;;;;;;5024103;28;20227;-76
2021/11/29 04:43:26;;;;;;;15.00;11.17;;;;;;;;;;4995219;28;20216;-75
2021/11/29 04:46:01;;;;;;;14.43;10.83;;;;;;;;;;5008995;28;20244;-76
2021/11/29 04:48:29;;;;;;;13.50;10.90;;;;;;;;;;4976842;28;20228;-75
2021/11/29 04:50:54;;;;;;;12.63;9.77;;;;;;;;;;5011928;28;20634;-76
2021/11/29 04:53:20;;;;;;;15.83;11.57;;;;;;;;;;5028220;28;20231;-75
2021/11/29 04:55:46;;;;;;;13.60;10.87;;;;;;;;;;5027790;28;20736;-75
2021/11/29 04:58:14;;;;;;;16.80;11.07;;;;;;;;;;5034965;28;20251;-75
2021/11/29 05:00:40;;;;;;;15.90;12.20;;;;;;;;;;4991807;28;20616;-75
2021/11/29 05:03:07;;;;;;;14.77;11.50;;;;;;;;;;5016170;28;20224;-75
2021/11/29 05:05:33;;;;;;;18.20;11.90;;;;;;;;;;5027990;28;20224;-76
2021/11/29 05:07:58;;;;;;;16.17;11.07;;;;;;;;;;5012160;28;20717;-75
2021/11/29 05:10:26;;;;;;;17.87;11.87;;;;;;;;;;4991285;28;20227;-76
2021/11/29 05:12:57;;;;;;;20.80;12.60;;;;;;;;;;4990561;28;20220;-75
2021/11/29 05:15:26;;;;;;;20.53;12.80;;;;;;;;;;4994922;28;20673;-75
2021/11/29 05:17:54;;;;;;;20.33;13.20;;;;;;;;;;4980068;28;20236;-75
2021/11/29 05:20:22;;;;;;;17.90;12.33;;;;;;;;;;5015044;28;20230;-75
2021/11/29 05:22:48;;;;;;;17.90;12.73;;;;;;;;;;4999204;28;20216;-75
2021/11/29 05:25:19;;;;;;;19.23;13.00;;;;;;;;;;5015016;28;20228;-75
2021/11/29 05:27:47;;;;;;;19.97;12.77;;;;;;;;;;5022539;28;20593;-75
2021/11/29 05:30:13;;;;;;;19.23;13.30;;;;;;;;;;5014925;28;20303;-75
2021/11/29 05:32:38;;;;;;;19.83;12.93;;;;;;;;;;4999191;28;20243;-75
2021/11/29 05:35:05;;;;;;;21.60;14.13;;;;;;;;;;4981794;28;20220;-75
2021/11/29 05:37:31;;;;;;;22.37;15.17;;;;;;;;;;5014697;28;20224;-75
2021/11/29 05:39:56;;;;;;;26.80;15.67;;;;;;;;;;5032651;28;20227;-76
2021/11/29 05:42:24;;;;;;;23.10;14.67;;;;;;;;;;5015021;28;20243;-75
2021/11/29 05:44:50;;;;;;;23.70;13.87;;;;;;;;;;5015796;28;20752;-75
2021/11/29 05:47:19;;;;;;;24.73;15.73;;;;;;;;;;5011590;28;20237;-75
2021/11/29 05:49:49;;;;;;;24.70;14.40;;;;;;;;;;5002339;28;20674;-75
2021/11/29 05:52:15;;;;;;;23.40;15.63;;;;;;;;;;5030820;28;20235;-75
2021/11/29 05:54:43;;;;;;;21.57;14.83;;;;;;;;;;5014921;28;20607;-75
2021/11/29 05:57:09;;;;;;;23.50;15.97;;;;;;;;;;5002099;28;20680;-75
2021/11/29 05:59:37;;;;;;;22.93;14.93;;;;;;;;;;5002119;28;20224;-74
2021/11/29 06:02:07;;;;;;;24.57;15.37;;;;;;;;;;5014680;28;20238;-77
2021/11/29 06:04:35;;;;;;;25.27;15.37;;;;;;;;;;4982098;28;20220;-76
2021/11/29 06:07:00;;;;;;;28.00;16.17;;;;;;;;;;5020729;28;20598;-76
2021/11/29 06:09:26;;;;;;;27.27;15.90;;;;;;;;;;4994159;28;20212;-76
2021/11/29 06:11:52;;;;;;;28.70;16.33;;;;;;;;;;4991190;28;20220;-76
2021/11/29 06:14:19;;;;;;;26.90;15.47;;;;;;;;;;5010729;28;20224;-75
2021/11/29 06:16:45;;;;;;;24.00;15.73;;;;;;;;;;4986557;28;20220;-76
2021/11/29 06:19:10;;;;;;;28.03;15.57;;;;;;;;;;5014068;28;20706;-76
2021/11/29 06:21:36;;;;;;;26.77;15.77;;;;;;;;;;4995174;28;20849;-75
2021/11/29 06:24:08;;;;;;;29.30;16.43;;;;;;;;;;5010963;28;20231;-77
2021/11/29 06:26:34;;;;;;;28.87;17.33;;;;;;;;;;5014304;28;20224;-74
2021/11/29 06:29:02;;;;;;;30.50;17.87;;;;;;;;;;5037008;28;20228;-76
2021/11/29 06:31:27;;;;;;;28.50;16.80;;;;;;;;;;5030774;28;20216;-77
2021/11/29 06:33:53;;;;;;;26.73;16.60;;;;;;;;;;5014440;28;20232;-76
2021/11/29 06:36:19;;;;;;;33.77;17.63;;;;;;;;;;4994870;28;20216;-76
2021/11/29 06:38:46;;;;;;;29.40;18.00;;;;;;;;;;4994830;28;20220;-76
2021/11/29 06:41:14;;;;;;;30.57;17.37;;;;;;;;;;5013388;28;20228;-76
2021/11/29 06:43:40;;;;;;;31.63;17.47;;;;;;;;;;4997015;28;21029;-75
2021/11/29 06:46:10;;;;;;;26.07;16.60;;;;;;;;;;5022390;28;20216;-76
2021/11/29 06:48:39;;;;;;;28.20;16.10;;;;;;;;;;5027096;28;20231;-73
2021/11/29 06:51:08;;;;;;;29.37;16.23;;;;;;;;;;4977829;28;20236;-74
2021/11/29 06:53:34;;;;;;;32.93;16.67;;;;;;;;;;5030046;28;20311;-77
2021/11/29 06:56:00;;;;;;;29.70;16.00;;;;;;;;;;4998645;28;20251;-75
2021/11/29 06:58:29;;;;;;;26.10;16.27;;;;;;;;;;5017235;28;20225;-75
2021/11/29 07:00:56;;;;;;;27.00;15.50;;;;;;;;;;5021721;28;20250;-76
2021/11/29 07:03:22;;;;;;;26.93;14.77;;;;;;;;;;5029508;28;20741;-74
2021/11/29 07:05:50;;;;;;;26.70;15.67;;;;;;;;;;5026201;28;20220;-74
2021/11/29 07:08:18;;;;;;;27.57;15.47;;;;;;;;;;5004366;28;20311;-75
2021/11/29 07:10:45;;;;;;;30.27;15.30;;;;;;;;;;4998475;28;20757;-74
2021/11/29 07:13:11;;;;;;;24.60;14.90;;;;;;;;;;4981558;28;20222;-74
2021/11/29 07:15:37;;;;;;;26.90;15.03;;;;;;;;;;5029673;28;20231;-76
2021/11/29 07:18:05;;;;;;;24.73;14.33;;;;;;;;;;4991756;28;20239;-74
2021/11/29 07:20:31;;;;;;;21.50;13.17;;;;;;;;;;5010838;28;20237;-74
2021/11/29 07:22:56;;;;;;;24.23;14.50;;;;;;;;;;5029252;28;20307;-74
2021/11/29 07:25:23;;;;;;;23.00;14.20;;;;;;;;;;4996722;28;20250;-74
2021/11/29 07:27:54;;;;;;;22.30;14.00;;;;;;;;;;4994609;28;20717;-74
2021/11/29 07:30:23;;;;;;;23.07;13.60;;;;;;;;;;5012980;28;20289;-74
2021/11/29 07:32:53;;;;;;;23.23;13.73;;;;;;;;;;4995741;28;20208;-75
2021/11/29 07:35:18;;;;;;;20.50;13.03;;;;;;;;;;4996650;28;20501;-74
2021/11/29 07:37:44;;;;;;;22.50;13.13;;;;;;;;;;4976063;28;20209;-75
2021/11/29 07:40:12;;;;;;;20.47;13.17;;;;;;;;;;4987970;28;20664;-74
2021/11/29 07:42:43;;;;;;;19.40;12.77;;;;;;;;;;4991728;28;20216;-75
2021/11/29 07:45:12;;;;;;;21.87;13.37;;;;;;;;;;4992494;28;20225;-74
2021/11/29 07:47:41;;;;;;;20.37;12.33;;;;;;;;;;5010946;28;20220;-75
2021/11/29 07:50:13;;;;;;;20.30;12.53;;;;;;;;;;5028170;28;20224;-75
2021/11/29 07:52:44;;;;;;;18.63;12.87;;;;;;;;;;5011691;28;20216;-74
2021/11/29 07:55:15;;;;;;;19.30;11.80;;;;;;;;;;5028420;28;20235;-75
2021/11/29 07:57:41;;;;;;;17.63;11.77;;;;;;;;;;4987320;28;20219;-76
2021/11/29 08:00:18;;;;;;;23.30;13.00;;;;;;;;;;4980619;28;20216;-74
2021/11/29 08:02:47;;;;;;;19.83;12.50;;;;;;;;;;4997538;28;20645;-74
2021/11/29 08:05:12;;;;;;;19.37;12.90;;;;;;;;;;4995848;28;20282;-76
2021/11/29 08:07:43;;;;;;;20.43;12.83;;;;;;;;;;4997336;28;20223;-75
2021/11/29 08:10:11;;;;;;;19.77;13.43;;;;;;;;;;5028267;28;20273;-74
2021/11/29 08:12:40;;;;;;;19.00;12.20;;;;;;;;;;5013510;28;20323;-75
2021/11/29 08:15:06;;;;;;;20.30;13.73;;;;;;;;;;5026655;28;20220;-76
2021/11/29 08:17:32;;;;;;;18.93;13.20;;;;;;;;;;5010723;28;20773;-75
2021/11/29 08:19:57;;;;;;;19.33;12.57;;;;;;;;;;5011658;28;20216;-74
2021/11/29 08:22:23;;;;;;;20.53;13.30;;;;;;;;;;5012719;28;20231;-76
2021/11/29 08:24:49;;;;;;;19.03;12.80;;;;;;;;;;5012937;28;20219;-74
2021/11/29 08:27:19;;;;;;;19.87;12.77;;;;;;;;;;5001041;28;20230;-74
2021/11/29 08:29:50;;;;;;;20.07;12.87;;;;;;;;;;5030954;28;20231;-74
2021/11/29 08:32:18;;;;;;;17.70;12.37;;;;;;;;;;5029793;28;20220;-74
2021/11/29 08:34:47;;;;;;;18.27;12.33;;;;;;;;;;4993459;28;20221;-76
2021/11/29 08:37:15;;;;;;;18.17;12.47;;;;;;;;;;5009657;28;20236;-74
2021/11/29 08:39:41;;;;;;;18.20;10.90;;;;;;;;;;4996320;28;20213;-74
2021/11/29 08:42:09;;;;;;;14.73;11.23;;;;;;;;;;5029010;28;20235;-75
2021/11/29 08:44:34;;;;;;;17.70;12.27;;;;;;;;;;4996391;28;20223;-75
2021/11/29 08:47:00;;;;;;;17.97;12.17;;;;;;;;;;5013330;28;20232;-75
2021/11/29 08:49:26;;;;;;;15.63;11.60;;;;;;;;;;5012254;28;20227;-75
2021/11/29 08:51:55;;;;;;;16.33;11.93;;;;;;;;;;5012998;28;20249;-75
2021/11/29 08:54:21;;;;;;;15.03;11.17;;;;;;;;;;5031576;28;20250;-74
2021/11/29 08:56:47;;;;;;;17.77;11.97;;;;;;;;;;5032972;28;20239;-75
2021/11/29 08:59:19;;;;;;;17.17;11.07;;;;;;;;;;5018564;28;20690;-75
2021/11/29 09:01:45;;;;;;;17.53;11.57;;;;;;;;;;5016510;28;20223;-75
2021/11/29 09:04:13;;;;;;;16.83;12.27;;;;;;;;;;5032623;28;20220;-76
2021/11/29 09:06:40;;;;;;;16.87;11.97;;;;;;;;;;5000224;28;20286;-75
2021/11/29 09:09:10;;;;;;;17.77;12.97;;;;;;;;;;4999627;28;20717;-75
2021/11/29 09:11:36;;;;;;;15.37;11.70;;;;;;;;;;5002030;28;20244;-75
2021/11/29 09:14:02;;;;;;;18.10;12.50;;;;;;;;;;5032592;28;20350;-75
2021/11/29 09:16:28;;;;;;;22.40;15.97;;;;;;;;;;5016065;28;20302;-75
2021/11/29 09:18:53;;;;;;;16.80;11.73;;;;;;;;;;5016346;28;20232;-76
2021/11/29 09:21:21;;;;;;;19.03;12.87;;;;;;;;;;5015990;28;20297;-76
2021/11/29 09:23:46;;;;;;;17.00;11.93;;;;;;;;;;5000297;28;20717;-76
2021/11/29 09:26:13;;;;;;;15.30;11.33;;;;;;;;;;5015398;28;20235;-75
2021/11/29 09:28:41;;;;;;;17.40;11.97;;;;;;;;;;5021957;28;20227;-75
2021/11/29 09:31:07;;;;;;;18.10;12.80;;;;;;;;;;5023268;28;20594;-76
2021/11/29 09:33:35;;;;;;;17.83;11.37;;;;;;;;;;5002079;28;20220;-76
2021/11/29 09:36:03;;;;;;;15.60;10.90;;;;;;;;;;5016440;28;20220;-77
2021/11/29 09:38:29;;;;;;;15.20;10.93;;;;;;;;;;5019442;28;20228;-75
2021/11/29 09:40:57;;;;;;;16.73;11.53;;;;;;;;;;5032615;28;20266;-75
2021/11/29 09:43:26;;;;;;;14.90;11.13;;;;;;;;;;5015772;28;20226;-75
2021/11/29 09:45:52;;;;;;;16.03;12.03;;;;;;;;;;4995004;28;20625;-75
2021/11/29 09:48:21;;;;;;;18.80;12.90;;;;;;;;;;4995619;28;20237;-75
2021/11/29 09:50:49;;;;;;;16.67;12.63;;;;;;;;;;4999760;28;20694;-75
2021/11/29 09:53:18;;;;;;;16.43;11.17;;;;;;;;;;5015433;28;20235;-76
2021/11/29 09:55:46;;;;;;;17.07;12.17;;;;;;;;;;4997055;28;20535;-75
2021/11/29 09:58:12;;;;;;;17.40;11.93;;;;;;;;;;5006264;28;20223;-76
2021/11/29 10:00:43;;;;;;;17.17;13.40;;;;;;;;;;5015431;28;20232;-75
2021/11/29 10:03:11;;;;;;;20.30;13.57;;;;;;;;;;5015401;28;20255;-75
2021/11/29 10:05:41;;;;;;;18.93;12.90;;;;;;;;;;5015154;28;20221;-75
2021/11/29 10:08:31;;;;;;;21.07;15.27;;;;;;;;;;5014900;28;20244;-75
2021/11/29 10:11:05;;;;;;;19.47;13.60;;;;;;;;;;4999577;28;20311;-75
2021/11/29 10:13:51;;;;;;;20.97;14.30;;;;;;;;;;5016153;28;20767;-75
2021/11/29 10:16:44;;;;;;;18.90;13.17;;;;;;;;;;5032398;28;20720;-75
2021/11/29 10:19:21;;;;;;;18.67;13.57;;;;;;;;;;5000749;28;20248;-75
2021/11/29 10:21:48;;;;;;;19.57;13.40;;;;;;;;;;5025651;28;20278;-76
2021/11/29 10:24:18;;;;;;;21.27;14.10;;;;;;;;;;5030831;28;20294;-75
2021/11/29 10:26:51;;;;;;;18.90;13.57;;;;;;;;;;5031964;28;20232;-76
2021/11/29 10:29:17;;;;;;;21.87;15.20;;;;;;;;;;5020100;28;20224;-76
2021/11/29 10:31:49;;;;;;;20.77;13.70;;;;;;;;;;4998757;28;20232;-76
2021/11/29 10:34:19;;;;;;;26.97;18.27;;;;;;;;;;5030740;28;20621;-75
2021/11/29 10:36:47;;;;;;;20.40;13.90;;;;;;;;;;4979337;28;20227;-76
2021/11/29 10:39:18;;;;;;;19.83;14.73;;;;;;;;;;4995190;28;20274;-76
2021/11/29 10:41:48;;;;;;;20.60;15.10;;;;;;;;;;5015064;28;20228;-75
2021/11/29 10:44:19;;;;;;;21.60;14.27;;;;;;;;;;5030409;28;20304;-74
2021/11/29 10:46:47;;;;;;;22.80;14.00;;;;;;;;;;5031346;28;20220;-76
2021/11/29 10:49:14;;;;;;;21.80;15.03;;;;;;;;;;5014253;28;20258;-76
2021/11/29 10:51:41;;;;;;;21.27;15.27;;;;;;;;;;5014890;28;20281;-74
2021/11/29 10:54:14;;;;;;;24.67;15.43;;;;;;;;;;5030558;28;20242;-74
2021/11/29 10:56:40;;;;;;;19.20;13.10;;;;;;;;;;5031055;28;20740;-75
2021/11/29 10:59:08;;;;;;;23.17;15.40;;;;;;;;;;5004956;28;20587;-75
2021/11/29 11:02:10;;;;;;;19.73;13.83;;;;;;;;;;5030726;28;20235;-75
2021/11/29 11:04:49;;;;;;;21.87;14.43;;;;;;;;;;5007247;28;20223;-76
2021/11/29 11:07:25;;;;;;;22.90;14.90;;;;;;;;;;5011286;28;20224;-75
2021/11/29 11:09:56;;;;;;;20.13;14.07;;;;;;;;;;5010764;28;20227;-76
2021/11/29 11:12:27;;;;;;;22.20;13.87;;;;;;;;;;4997791;28;20274;-76
2021/11/29 11:14:55;;;;;;;20.47;13.57;;;;;;;;;;5013809;28;20235;-76
2021/11/29 11:17:24;;;;;;;21.17;14.47;;;;;;;;;;5013458;28;20224;-76
2021/11/29 11:19:57;;;;;;;18.33;13.87;;;;;;;;;;5031517;28;20697;-76
2021/11/29 11:22:24;;;;;;;18.30;12.53;;;;;;;;;;5014476;28;20228;-76
2021/11/29 11:24:54;;;;;;;17.03;12.57;;;;;;;;;;5031937;28;20241;-76
2021/11/29 11:27:22;;;;;;;20.10;13.43;;;;;;;;;;5036935;28;20223;-76
2021/11/29 11:29:52;;;;;;;19.53;13.03;;;;;;;;;;4999721;28;20223;-75
2021/11/29 11:32:26;;;;;;;17.83;11.63;;;;;;;;;;5031126;28;20224;-76
2021/11/29 11:35:00;;;;;;;14.90;10.10;;;;;;;;;;5029806;28;20232;-75
2021/11/29 11:37:40;;;;;;;14.87;11.20;;;;;;;;;;5010867;28;20644;-75
2021/11/29 11:40:08;;;;;;;15.00;10.73;;;;;;;;;;5006875;28;20705;-75
2021/11/29 11:42:33;;;;;;;15.33;10.70;;;;;;;;;;5025786;28;20243;-74
2021/11/29 11:44:59;;;;;;;15.40;10.60;;;;;;;;;;5007891;28;20216;-74
2021/11/29 11:47:28;;;;;;;12.73;10.10;;;;;;;;;;4987393;28;20228;-74
2021/11/29 11:49:54;;;;;;;15.30;11.20;;;;;;;;;;4995998;28;20244;-75
2021/11/29 11:52:20;;;;;;;13.70;10.17;;;;;;;;;;4986040;28;20223;-74
2021/11/29 11:54:49;;;;;;;15.33;10.83;;;;;;;;;;5024203;28;20270;-74
2021/11/29 11:57:18;;;;;;;15.13;10.73;;;;;;;;;;5034360;28;20215;-74
2021/11/29 11:59:54;;;;;;;15.00;10.80;;;;;;;;;;5015532;28;20306;-74
2021/11/29 12:02:32;;;;;;;15.23;10.73;;;;;;;;;;5014656;28;20228;-76
2021/11/29 12:05:17;;;;;;;16.43;12.07;;;;;;;;;;4979508;28;20298;-77
2021/11/29 12:07:44;;;;;;;18.07;12.17;;;;;;;;;;5004090;28;20591;-75
2021/11/29 12:10:42;;;;;;;19.63;14.33;;;;;;;;;;5012981;28;20212;-74
2021/11/29 12:13:17;;;;;;;19.60;11.93;;;;;;;;;;5003158;28;20717;-74
2021/11/29 12:15:56;;;;;;;18.20;11.93;;;;;;;;;;4992943;28;20587;-75
2021/11/29 12:18:39;;;;;;;16.40;12.07;;;;;;;;;;4990363;28;20238;-76
2021/11/29 12:21:20;;;;;;;17.43;12.53;;;;;;;;;;5023585;28;20235;-75
2021/11/29 12:23:47;;;;;;;19.73;12.90;;;;;;;;;;5027157;28;20244;-75
2021/11/29 12:26:16;;;;;;;17.60;13.03;;;;;;;;;;5009016;28;20230;-75
2021/11/29 12:28:43;;;;;;;17.37;12.43;;;;;;;;;;5029709;28;20287;-75
2021/11/29 12:31:38;;;;;;;18.83;12.90;;;;;;;;;;4988057;28;20725;-75
2021/11/29 12:34:11;;;;;;;17.00;12.13;;;;;;;;;;5000405;28;20246;-77
2021/11/29 12:36:54;;;;;;;16.57;12.57;;;;;;;;;;5034475;28;20260;-76
2021/11/29 12:39:46;;;;;;;15.97;12.00;;;;;;;;;;5016379;28;20318;-75
2021/11/29 12:44:56;;;;;;;18.10;12.33;;;;;;;;;;5032675;28;20219;-76
2021/11/29 12:47:23;;;;;;;16.20;12.00;;;;;;;;;;5013377;28;20318;-75
2021/11/29 12:49:53;;;;;;;15.50;12.17;;;;;;;;;;5020656;28;20216;-74
2021/11/29 12:52:34;;;;;;;15.07;11.80;;;;;;;;;;5011292;28;20677;-74
2021/11/29 12:55:00;;;;;;;15.53;12.20;;;;;;;;;;5032345;28;20277;-74
2021/11/29 12:57:30;;;;;;;16.20;11.80;;;;;;;;;;5025674;28;20220;-76
2021/11/29 13:00:31;;;;;;;16.67;12.07;;;;;;;;;;5012641;28;20653;-76
2021/11/29 13:02:57;;;;;;;15.77;11.50;;;;;;;;;;5000785;28;20282;-76
2021/11/29 13:05:26;;;;;;;14.13;10.93;;;;;;;;;;5011085;28;20232;-75
2021/11/29 13:08:20;;;;;;;15.33;11.77;;;;;;;;;;5030100;28;20232;-75
2021/11/29 13:11:03;;;;;;;14.70;11.27;;;;;;;;;;5033743;28;20208;-76
2021/11/29 13:13:38;;;;;;;14.70;10.97;;;;;;;;;;5012881;28;20216;-76
2021/11/29 13:16:14;;;;;;;14.73;11.20;;;;;;;;;;5013593;28;20231;-76
2021/11/29 13:18:49;;;;;;;14.83;11.13;;;;;;;;;;4998325;28;20274;-76
2021/11/29 13:21:24;;;;;;;16.57;11.77;;;;;;;;;;5039170;28;20638;-76
2021/11/29 13:24:00;;;;;;;15.80;12.57;;;;;;;;;;5045470;28;20219;-76
2021/11/29 13:26:30;;;;;;;14.13;11.33;;;;;;;;;;4999141;28;20307;-76
2021/11/29 13:28:59;;;;;;;12.83;10.50;;;;;;;;;;5007408;28;20220;-76
2021/11/29 13:31:30;;;;;;;13.77;10.70;;;;;;;;;;5031931;28;20212;-77
2021/11/29 13:33:56;;;;;;;14.77;11.37;;;;;;;;;;5015204;28;20500;-75
2021/11/29 13:36:26;;;;;;;15.40;11.90;;;;;;;;;;5012167;28;20236;-76
2021/11/29 13:38:57;;;;;;;12.90;11.13;;;;;;;;;;4999120;28;20246;-76
2021/11/29 13:41:25;;;;;;;13.43;10.73;;;;;;;;;;5011639;28;20232;-76
2021/11/29 13:43:51;;;;;;;14.63;10.87;;;;;;;;;;5030741;28;20213;-76
2021/11/29 13:46:19;;;;;;;13.17;11.37;;;;;;;;;;4995495;28;20235;-76
2021/11/29 13:48:47;;;;;;;13.57;10.73;;;;;;;;;;5000597;28;20224;-76
2021/11/29 13:51:15;;;;;;;13.57;11.23;;;;;;;;;;4998131;28;20690;-76
2021/11/29 13:53:43;;;;;;;13.73;10.93;;;;;;;;;;5029297;28;20212;-75
2021/11/29 13:56:11;;;;;;;12.20;10.50;;;;;;;;;;5014032;28;20224;-74
2021/11/29 13:58:38;;;;;;;12.17;10.70;;;;;;;;;;5029733;28;20227;-75
2021/11/29 14:01:14;;;;;;;13.33;10.43;;;;;;;;;;5041449;28;20227;-75
2021/11/29 14:03:45;;;;;;;12.93;10.77;;;;;;;;;;5016251;28;20215;-75
2021/11/29 14:06:15;;;;;;;12.67;10.10;;;;;;;;;;5032030;28;20228;-75
2021/11/29 14:08:46;;;;;;;12.80;9.83;;;;;;;;;;5000134;28;20220;-74
2021/11/29 14:11:16;;;;;;;10.13;8.80;;;;;;;;;;5000035;28;20709;-77
2021/11/29 14:13:52;;;;;;;10.40;8.27;;;;;;;;;;5015941;28;20224;-74
2021/11/29 14:16:51;;;;;;;13.57;9.07;;;;;;;;;;5040471;28;20219;-75
2021/11/29 14:19:20;;;;;;;11.37;8.33;;;;;;;;;;5003448;28;20250;-76
2021/11/29 14:21:48;;;;;;;10.73;8.63;;;;;;;;;;5015577;28;20231;-75
2021/11/29 14:24:18;;;;;;;9.90;8.37;;;;;;;;;;5009839;28;20252;-76
2021/11/29 14:26:52;;;;;;;10.13;8.77;;;;;;;;;;5012329;28;20216;-75
2021/11/29 14:29:28;;;;;;;9.87;7.50;;;;;;;;;;5021673;28;20238;-76
2021/11/29 14:32:06;;;;;;;8.37;7.17;;;;;;;;;;5010236;28;20242;-75
2021/11/29 14:34:37;;;;;;;10.10;7.70;;;;;;;;;;5015233;28;20219;-75
2021/11/29 14:37:14;;;;;;;8.87;7.13;;;;;;;;;;4983143;28;20220;-75
2021/11/29 14:39:45;;;;;;;10.33;7.40;;;;;;;;;;4998963;28;20223;-74